sensor_id;sensor_type;location;lat;lon;timestamp;P1;durP1;ratioP1;P2;durP2;ratioP2
27895;SDS011;15241;48.374;10.876;2023-02-25T00:01:54;6.28;;;3.00;;
27895;SDS011;15241;48.374;10.876;2023-02-25T00:06:53;5.28;;;2.70;;
27895;SDS011;15241;48.374;10.876;2023-02-25T00:11:52;4.70;;;2.92;;
27895;SDS011;15241;48.374;10.876;2023-02-25T00:16:51;4.55;;;2.52;;
27895;SDS011;15241;48.374;10.876;2023-02-25T00:21:50;5.30;;;2.42;;
27895;SDS011;15241;48.374;10.876;2023-02-25T00:26:49;4.20;;;2.55;;
27895;SDS011;15241;48.374;10.876;2023-02-25T00:31:48;5.22;;;2.40;;
27895;SDS011;15241;48.374;10.876;2023-02-25T00:36:46;3.65;;;2.00;;
27895;SDS011;15241;48.374;10.876;2023-02-25T00:41:45;4.12;;;2.25;;
27895;SDS011;15241;48.374;10.876;2023-02-25T00:46:44;3.35;;;1.90;;
27895;SDS011;15241;48.374;10.876;2023-02-25T00:51:43;3.65;;;2.20;;
27895;SDS011;15241;48.374;10.876;2023-02-25T00:56:42;3.02;;;1.95;;
27895;SDS011;15241;48.374;10.876;2023-02-25T01:01:41;2.98;;;1.90;;
27895;SDS011;15241;48.374;10.876;2023-02-25T01:06:40;1.85;;;1.60;;
27895;SDS011;15241;48.374;10.876;2023-02-25T01:11:40;2.67;;;2.17;;
27895;SDS011;15241;48.374;10.876;2023-02-25T01:16:41;3.37;;;2.20;;
27895;SDS011;15241;48.374;10.876;2023-02-25T01:21:41;3.90;;;2.30;;
27895;SDS011;15241;48.374;10.876;2023-02-25T01:26:42;4.50;;;2.65;;
27895;SDS011;15241;48.374;10.876;2023-02-25T01:31:42;2.52;;;1.80;;
27895;SDS011;15241;48.374;10.876;2023-02-25T01:36:41;3.12;;;2.25;;
27895;SDS011;15241;48.374;10.876;2023-02-25T01:41:41;2.20;;;1.95;;
27895;SDS011;15241;48.374;10.876;2023-02-25T01:46:41;3.90;;;2.17;;
27895;SDS011;15241;48.374;10.876;2023-02-25T01:51:41;2.77;;;2.05;;
27895;SDS011;15241;48.374;10.876;2023-02-25T01:56:43;3.12;;;2.42;;
27895;SDS011;15241;48.374;10.876;2023-02-25T02:01:51;4.90;;;2.75;;
27895;SDS011;15241;48.374;10.876;2023-02-25T02:06:51;5.83;;;2.60;;
27895;SDS011;15241;48.374;10.876;2023-02-25T02:11:51;4.67;;;3.47;;
27895;SDS011;15241;48.374;10.876;2023-02-25T02:17:02;3.30;;;2.55;;
27895;SDS011;15241;48.374;10.876;2023-02-25T02:22:06;4.78;;;2.70;;
27895;SDS011;15241;48.374;10.876;2023-02-25T02:27:07;6.70;;;3.40;;
27895;SDS011;15241;48.374;10.876;2023-02-25T02:32:10;5.67;;;3.35;;
27895;SDS011;15241;48.374;10.876;2023-02-25T02:37:17;5.95;;;3.25;;
27895;SDS011;15241;48.374;10.876;2023-02-25T02:42:27;3.77;;;3.37;;
27895;SDS011;15241;48.374;10.876;2023-02-25T02:47:28;4.95;;;3.77;;
27895;SDS011;15241;48.374;10.876;2023-02-25T02:52:30;5.20;;;3.95;;
27895;SDS011;15241;48.374;10.876;2023-02-25T02:57:33;4.95;;;3.85;;
27895;SDS011;15241;48.374;10.876;2023-02-25T03:02:34;6.47;;;4.70;;
27895;SDS011;15241;48.374;10.876;2023-02-25T03:07:35;5.30;;;4.42;;
27895;SDS011;15241;48.374;10.876;2023-02-25T03:12:36;5.90;;;4.65;;
27895;SDS011;15241;48.374;10.876;2023-02-25T03:17:40;6.92;;;4.90;;
27895;SDS011;15241;48.374;10.876;2023-02-25T03:22:41;6.78;;;5.25;;
27895;SDS011;15241;48.374;10.876;2023-02-25T03:27:43;7.83;;;5.28;;
27895;SDS011;15241;48.374;10.876;2023-02-25T03:32:43;7.20;;;5.37;;
27895;SDS011;15241;48.374;10.876;2023-02-25T03:37:44;6.30;;;5.50;;
27895;SDS011;15241;48.374;10.876;2023-02-25T03:42:48;8.50;;;6.35;;
27895;SDS011;15241;48.374;10.876;2023-02-25T03:47:48;10.10;;;6.17;;
27895;SDS011;15241;48.374;10.876;2023-02-25T03:52:55;7.90;;;6.08;;
27895;SDS011;15241;48.374;10.876;2023-02-25T03:57:55;7.83;;;5.75;;
27895;SDS011;15241;48.374;10.876;2023-02-25T04:02:53;8.33;;;5.85;;
27895;SDS011;15241;48.374;10.876;2023-02-25T04:07:53;8.53;;;6.10;;
27895;SDS011;15241;48.374;10.876;2023-02-25T04:12:52;9.98;;;5.97;;
27895;SDS011;15241;48.374;10.876;2023-02-25T04:17:51;8.48;;;6.70;;
27895;SDS011;15241;48.374;10.876;2023-02-25T04:22:50;13.62;;;5.70;;
27895;SDS011;15241;48.374;10.876;2023-02-25T04:27:49;8.78;;;6.10;;
27895;SDS011;15241;48.374;10.876;2023-02-25T04:32:48;9.90;;;6.45;;
27895;SDS011;15241;48.374;10.876;2023-02-25T04:37:46;7.95;;;5.50;;
27895;SDS011;15241;48.374;10.876;2023-02-25T04:42:46;7.83;;;5.62;;
27895;SDS011;15241;48.374;10.876;2023-02-25T04:47:44;10.40;;;5.40;;
27895;SDS011;15241;48.374;10.876;2023-02-25T04:52:43;7.87;;;5.72;;
27895;SDS011;15241;48.374;10.876;2023-02-25T04:57:43;7.58;;;5.08;;
27895;SDS011;15241;48.374;10.876;2023-02-25T05:02:42;13.50;;;6.53;;
27895;SDS011;15241;48.374;10.876;2023-02-25T05:07:40;7.25;;;5.05;;
27895;SDS011;15241;48.374;10.876;2023-02-25T05:12:40;8.28;;;4.87;;
27895;SDS011;15241;48.374;10.876;2023-02-25T05:17:38;7.47;;;4.58;;
27895;SDS011;15241;48.374;10.876;2023-02-25T05:22:37;6.22;;;4.80;;
27895;SDS011;15241;48.374;10.876;2023-02-25T05:27:37;7.37;;;4.75;;
27895;SDS011;15241;48.374;10.876;2023-02-25T05:32:35;8.30;;;5.22;;
27895;SDS011;15241;48.374;10.876;2023-02-25T05:37:34;9.23;;;5.22;;
27895;SDS011;15241;48.374;10.876;2023-02-25T05:42:33;7.33;;;5.00;;
27895;SDS011;15241;48.374;10.876;2023-02-25T05:47:32;6.35;;;4.95;;
27895;SDS011;15241;48.374;10.876;2023-02-25T05:52:31;8.13;;;4.60;;
27895;SDS011;15241;48.374;10.876;2023-02-25T05:57:30;8.38;;;4.45;;
27895;SDS011;15241;48.374;10.876;2023-02-25T06:02:31;8.00;;;4.42;;
27895;SDS011;15241;48.374;10.876;2023-02-25T06:07:30;7.50;;;4.47;;
27895;SDS011;15241;48.374;10.876;2023-02-25T06:12:30;6.72;;;3.85;;
27895;SDS011;15241;48.374;10.876;2023-02-25T06:17:30;8.93;;;4.17;;
27895;SDS011;15241;48.374;10.876;2023-02-25T06:22:29;8.05;;;3.70;;
27895;SDS011;15241;48.374;10.876;2023-02-25T06:27:28;5.55;;;3.92;;
27895;SDS011;15241;48.374;10.876;2023-02-25T06:32:26;6.67;;;4.80;;
27895;SDS011;15241;48.374;10.876;2023-02-25T06:37:25;8.53;;;4.92;;
27895;SDS011;15241;48.374;10.876;2023-02-25T06:42:24;7.03;;;4.28;;
27895;SDS011;15241;48.374;10.876;2023-02-25T06:47:23;8.93;;;3.90;;
27895;SDS011;15241;48.374;10.876;2023-02-25T06:52:22;7.28;;;3.15;;
27895;SDS011;15241;48.374;10.876;2023-02-25T06:57:21;7.55;;;3.22;;
27895;SDS011;15241;48.374;10.876;2023-02-25T07:02:20;6.55;;;3.12;;
27895;SDS011;15241;48.374;10.876;2023-02-25T07:07:19;9.10;;;3.42;;
27895;SDS011;15241;48.374;10.876;2023-02-25T07:12:18;8.08;;;3.30;;
27895;SDS011;15241;48.374;10.876;2023-02-25T07:17:17;6.85;;;3.72;;
27895;SDS011;15241;48.374;10.876;2023-02-25T07:22:16;9.30;;;3.50;;
27895;SDS011;15241;48.374;10.876;2023-02-25T07:27:16;16.35;;;6.47;;
27895;SDS011;15241;48.374;10.876;2023-02-25T07:32:14;5.55;;;2.80;;
27895;SDS011;15241;48.374;10.876;2023-02-25T07:37:13;6.70;;;2.80;;
27895;SDS011;15241;48.374;10.876;2023-02-25T07:42:12;8.98;;;3.15;;
27895;SDS011;15241;48.374;10.876;2023-02-25T07:47:11;5.17;;;2.87;;
27895;SDS011;15241;48.374;10.876;2023-02-25T07:52:10;7.40;;;3.12;;
27895;SDS011;15241;48.374;10.876;2023-02-25T07:57:09;9.35;;;3.05;;
27895;SDS011;15241;48.374;10.876;2023-02-25T08:02:10;9.48;;;3.20;;
27895;SDS011;15241;48.374;10.876;2023-02-25T08:07:10;4.17;;;2.33;;
27895;SDS011;15241;48.374;10.876;2023-02-25T08:12:09;6.10;;;2.58;;
27895;SDS011;15241;48.374;10.876;2023-02-25T08:17:08;5.78;;;2.92;;
27895;SDS011;15241;48.374;10.876;2023-02-25T08:22:07;4.78;;;2.20;;
27895;SDS011;15241;48.374;10.876;2023-02-25T08:27:06;8.03;;;2.40;;
27895;SDS011;15241;48.374;10.876;2023-02-25T08:32:05;7.70;;;2.35;;
27895;SDS011;15241;48.374;10.876;2023-02-25T08:37:04;5.00;;;2.08;;
27895;SDS011;15241;48.374;10.876;2023-02-25T08:42:05;6.75;;;2.37;;
27895;SDS011;15241;48.374;10.876;2023-02-25T08:47:04;5.55;;;2.00;;
27895;SDS011;15241;48.374;10.876;2023-02-25T08:52:03;8.43;;;3.42;;
27895;SDS011;15241;48.374;10.876;2023-02-25T08:57:02;4.85;;;1.80;;
27895;SDS011;15241;48.374;10.876;2023-02-25T09:02:01;5.08;;;1.85;;
27895;SDS011;15241;48.374;10.876;2023-02-25T09:07:00;6.37;;;1.47;;
27895;SDS011;15241;48.374;10.876;2023-02-25T09:12:00;3.37;;;1.40;;
27895;SDS011;15241;48.374;10.876;2023-02-25T09:17:01;4.72;;;1.37;;
27895;SDS011;15241;48.374;10.876;2023-02-25T09:22:00;4.67;;;1.27;;
27895;SDS011;15241;48.374;10.876;2023-02-25T09:26:59;5.58;;;1.30;;
27895;SDS011;15241;48.374;10.876;2023-02-25T09:32:01;2.50;;;1.17;;
27895;SDS011;15241;48.374;10.876;2023-02-25T09:37:01;2.85;;;1.10;;
27895;SDS011;15241;48.374;10.876;2023-02-25T09:42:04;4.97;;;1.20;;
27895;SDS011;15241;48.374;10.876;2023-02-25T09:47:04;4.22;;;1.50;;
27895;SDS011;15241;48.374;10.876;2023-02-25T09:52:10;2.90;;;0.85;;
27895;SDS011;15241;48.374;10.876;2023-02-25T09:57:12;5.20;;;1.27;;
27895;SDS011;15241;48.374;10.876;2023-02-25T10:02:23;3.47;;;0.90;;
27895;SDS011;15241;48.374;10.876;2023-02-25T10:07:30;3.98;;;1.30;;
27895;SDS011;15241;48.374;10.876;2023-02-25T10:12:30;4.12;;;1.17;;
27895;SDS011;15241;48.374;10.876;2023-02-25T10:17:34;5.28;;;1.42;;
27895;SDS011;15241;48.374;10.876;2023-02-25T10:22:39;2.77;;;0.77;;
27895;SDS011;15241;48.374;10.876;2023-02-25T10:27:42;3.22;;;1.15;;
27895;SDS011;15241;48.374;10.876;2023-02-25T10:32:42;3.80;;;1.27;;
27895;SDS011;15241;48.374;10.876;2023-02-25T10:37:42;3.25;;;1.12;;
27895;SDS011;15241;48.374;10.876;2023-02-25T10:42:42;8.23;;;1.57;;
27895;SDS011;15241;48.374;10.876;2023-02-25T10:47:44;4.22;;;1.17;;
27895;SDS011;15241;48.374;10.876;2023-02-25T10:52:52;5.25;;;1.02;;
27895;SDS011;15241;48.374;10.876;2023-02-25T10:57:53;3.92;;;1.30;;
27895;SDS011;15241;48.374;10.876;2023-02-25T11:02:52;2.77;;;0.88;;
27895;SDS011;15241;48.374;10.876;2023-02-25T11:07:51;3.72;;;1.02;;
27895;SDS011;15241;48.374;10.876;2023-02-25T11:12:51;2.85;;;0.90;;
27895;SDS011;15241;48.374;10.876;2023-02-25T11:17:51;5.30;;;0.90;;
27895;SDS011;15241;48.374;10.876;2023-02-25T11:22:52;2.42;;;0.88;;
27895;SDS011;15241;48.374;10.876;2023-02-25T11:27:54;3.77;;;1.00;;
27895;SDS011;15241;48.374;10.876;2023-02-25T11:32:53;3.98;;;1.07;;
27895;SDS011;15241;48.374;10.876;2023-02-25T11:37:54;6.28;;;1.30;;
27895;SDS011;15241;48.374;10.876;2023-02-25T11:43:12;2.55;;;1.22;;
27895;SDS011;15241;48.374;10.876;2023-02-25T11:48:17;3.08;;;1.30;;
27895;SDS011;15241;48.374;10.876;2023-02-25T11:53:22;2.33;;;1.30;;
27895;SDS011;15241;48.374;10.876;2023-02-25T11:58:26;1.75;;;1.00;;
27895;SDS011;15241;48.374;10.876;2023-02-25T12:03:33;2.00;;;1.20;;
27895;SDS011;15241;48.374;10.876;2023-02-25T12:19:56;2.65;;;1.25;;
27895;SDS011;15241;48.374;10.876;2023-02-25T12:25:20;1.95;;;1.07;;
27895;SDS011;15241;48.374;10.876;2023-02-25T12:35:57;3.80;;;1.10;;
27895;SDS011;15241;48.374;10.876;2023-02-25T12:41:04;2.55;;;1.15;;
27895;SDS011;15241;48.374;10.876;2023-02-25T12:46:16;2.42;;;1.10;;
27895;SDS011;15241;48.374;10.876;2023-02-25T12:51:35;1.77;;;0.80;;
27895;SDS011;15241;48.374;10.876;2023-02-25T12:56:59;2.25;;;1.07;;
27895;SDS011;15241;48.374;10.876;2023-02-25T13:02:04;2.30;;;0.80;;
27895;SDS011;15241;48.374;10.876;2023-02-25T13:07:31;1.52;;;0.80;;
27895;SDS011;15241;48.374;10.876;2023-02-25T13:12:46;1.82;;;1.02;;
27895;SDS011;15241;48.374;10.876;2023-02-25T13:17:58;1.22;;;0.72;;
27895;SDS011;15241;48.374;10.876;2023-02-25T13:23:20;1.93;;;0.80;;
27895;SDS011;15241;48.374;10.876;2023-02-25T13:28:24;1.73;;;0.80;;
27895;SDS011;15241;48.374;10.876;2023-02-25T13:33:43;1.90;;;1.00;;
27895;SDS011;15241;48.374;10.876;2023-02-25T13:38:57;1.10;;;0.70;;
27895;SDS011;15241;48.374;10.876;2023-02-25T13:44:17;4.03;;;0.80;;
27895;SDS011;15241;48.374;10.876;2023-02-25T13:49:37;2.00;;;0.72;;
27895;SDS011;15241;48.374;10.876;2023-02-25T14:00:33;1.77;;;0.65;;
27895;SDS011;15241;48.374;10.876;2023-02-25T14:05:48;0.68;;;0.55;;
27895;SDS011;15241;48.374;10.876;2023-02-25T14:11:00;1.95;;;0.80;;
27895;SDS011;15241;48.374;10.876;2023-02-25T14:16:03;2.05;;;1.17;;
27895;SDS011;15241;48.374;10.876;2023-02-25T14:21:12;1.45;;;0.80;;
27895;SDS011;15241;48.374;10.876;2023-02-25T14:26:33;0.88;;;0.65;;
27895;SDS011;15241;48.374;10.876;2023-02-25T14:31:39;2.50;;;0.60;;
27895;SDS011;15241;48.374;10.876;2023-02-25T14:36:54;1.50;;;0.70;;
27895;SDS011;15241;48.374;10.876;2023-02-25T14:42:15;2.37;;;0.72;;
27895;SDS011;15241;48.374;10.876;2023-02-25T14:47:21;0.88;;;0.50;;
27895;SDS011;15241;48.374;10.876;2023-02-25T14:52:37;1.30;;;0.70;;
27895;SDS011;15241;48.374;10.876;2023-02-25T15:03:31;2.15;;;1.30;;
27895;SDS011;15241;48.374;10.876;2023-02-25T15:20:06;1.65;;;0.80;;
27895;SDS011;15241;48.374;10.876;2023-02-25T15:25:33;1.70;;;0.75;;
27895;SDS011;15241;48.374;10.876;2023-02-25T15:36:02;2.62;;;0.90;;
27895;SDS011;15241;48.374;10.876;2023-02-25T15:41:37;2.77;;;0.85;;
27895;SDS011;15241;48.374;10.876;2023-02-25T15:46:42;3.92;;;1.02;;
27895;SDS011;15241;48.374;10.876;2023-02-25T15:51:43;2.98;;;1.47;;
27895;SDS011;15241;48.374;10.876;2023-02-25T15:56:46;4.92;;;2.08;;
27895;SDS011;15241;48.374;10.876;2023-02-25T16:01:46;4.17;;;1.32;;
27895;SDS011;15241;48.374;10.876;2023-02-25T16:06:45;2.50;;;1.30;;
27895;SDS011;15241;48.374;10.876;2023-02-25T16:11:46;4.08;;;1.57;;
27895;SDS011;15241;48.374;10.876;2023-02-25T16:16:48;3.02;;;1.07;;
27895;SDS011;15241;48.374;10.876;2023-02-25T16:21:50;4.75;;;1.50;;
27895;SDS011;15241;48.374;10.876;2023-02-25T16:26:52;2.35;;;1.30;;
27895;SDS011;15241;48.374;10.876;2023-02-25T16:31:55;4.13;;;1.53;;
27895;SDS011;15241;48.374;10.876;2023-02-25T16:37:00;4.08;;;1.62;;
27895;SDS011;15241;48.374;10.876;2023-02-25T16:42:02;2.42;;;1.35;;
27895;SDS011;15241;48.374;10.876;2023-02-25T16:47:05;6.58;;;1.47;;
27895;SDS011;15241;48.374;10.876;2023-02-25T16:52:11;3.75;;;1.40;;
27895;SDS011;15241;48.374;10.876;2023-02-25T16:57:18;6.97;;;2.02;;
27895;SDS011;15241;48.374;10.876;2023-02-25T17:02:26;3.72;;;1.45;;
27895;SDS011;15241;48.374;10.876;2023-02-25T17:07:25;4.85;;;3.65;;
27895;SDS011;15241;48.374;10.876;2023-02-25T17:12:34;2.52;;;0.62;;
27895;SDS011;15241;48.374;10.876;2023-02-25T17:17:36;4.20;;;1.62;;
27895;SDS011;15241;48.374;10.876;2023-02-25T17:22:37;1.70;;;1.20;;
27895;SDS011;15241;48.374;10.876;2023-02-25T17:27:36;1.50;;;1.02;;
27895;SDS011;15241;48.374;10.876;2023-02-25T17:32:36;0.75;;;0.70;;
27895;SDS011;15241;48.374;10.876;2023-02-25T17:37:35;1.17;;;0.93;;
27895;SDS011;15241;48.374;10.876;2023-02-25T17:42:35;1.00;;;0.82;;
27895;SDS011;15241;48.374;10.876;2023-02-25T17:47:35;1.60;;;0.90;;
27895;SDS011;15241;48.374;10.876;2023-02-25T17:52:36;1.62;;;1.00;;
27895;SDS011;15241;48.374;10.876;2023-02-25T17:57:35;1.12;;;0.80;;
27895;SDS011;15241;48.374;10.876;2023-02-25T18:02:38;3.33;;;1.05;;
27895;SDS011;15241;48.374;10.876;2023-02-25T18:07:38;2.17;;;1.35;;
27895;SDS011;15241;48.374;10.876;2023-02-25T18:12:38;3.37;;;1.98;;
27895;SDS011;15241;48.374;10.876;2023-02-25T18:17:37;3.87;;;1.57;;
27895;SDS011;15241;48.374;10.876;2023-02-25T18:22:39;4.25;;;1.77;;
27895;SDS011;15241;48.374;10.876;2023-02-25T18:27:40;2.70;;;0.93;;
27895;SDS011;15241;48.374;10.876;2023-02-25T18:32:39;3.75;;;2.22;;
27895;SDS011;15241;48.374;10.876;2023-02-25T18:42:44;1.75;;;1.15;;
27895;SDS011;15241;48.374;10.876;2023-02-25T18:47:43;2.92;;;1.30;;
27895;SDS011;15241;48.374;10.876;2023-02-25T18:52:42;2.98;;;1.70;;
27895;SDS011;15241;48.374;10.876;2023-02-25T18:57:44;2.25;;;1.35;;
27895;SDS011;15241;48.374;10.876;2023-02-25T19:02:45;4.40;;;1.95;;
27895;SDS011;15241;48.374;10.876;2023-02-25T19:07:46;3.42;;;2.10;;
27895;SDS011;15241;48.374;10.876;2023-02-25T19:12:46;3.10;;;2.12;;
27895;SDS011;15241;48.374;10.876;2023-02-25T19:17:47;2.72;;;1.90;;
27895;SDS011;15241;48.374;10.876;2023-02-25T19:22:47;3.55;;;2.30;;
27895;SDS011;15241;48.374;10.876;2023-02-25T19:27:47;3.00;;;1.80;;
27895;SDS011;15241;48.374;10.876;2023-02-25T19:32:46;2.83;;;1.75;;
27895;SDS011;15241;48.374;10.876;2023-02-25T19:37:45;2.52;;;1.67;;
27895;SDS011;15241;48.374;10.876;2023-02-25T19:42:44;5.92;;;1.52;;
27895;SDS011;15241;48.374;10.876;2023-02-25T19:47:44;7.45;;;4.65;;
27895;SDS011;15241;48.374;10.876;2023-02-25T19:52:43;4.45;;;1.60;;
27895;SDS011;15241;48.374;10.876;2023-02-25T19:57:44;3.47;;;2.05;;
27895;SDS011;15241;48.374;10.876;2023-02-25T20:02:43;4.60;;;1.50;;
27895;SDS011;15241;48.374;10.876;2023-02-25T20:07:42;2.80;;;1.45;;
27895;SDS011;15241;48.374;10.876;2023-02-25T20:12:42;3.17;;;1.80;;
27895;SDS011;15241;48.374;10.876;2023-02-25T20:17:43;2.45;;;1.90;;
27895;SDS011;15241;48.374;10.876;2023-02-25T20:22:43;4.03;;;1.60;;
27895;SDS011;15241;48.374;10.876;2023-02-25T20:27:42;2.95;;;2.17;;
27895;SDS011;15241;48.374;10.876;2023-02-25T20:32:41;4.12;;;2.05;;
27895;SDS011;15241;48.374;10.876;2023-02-25T20:37:43;3.15;;;1.98;;
27895;SDS011;15241;48.374;10.876;2023-02-25T20:42:47;2.98;;;1.98;;
27895;SDS011;15241;48.374;10.876;2023-02-25T20:47:47;3.83;;;1.80;;
27895;SDS011;15241;48.374;10.876;2023-02-25T20:52:47;5.08;;;2.62;;
27895;SDS011;15241;48.374;10.876;2023-02-25T20:57:46;3.05;;;1.87;;
27895;SDS011;15241;48.374;10.876;2023-02-25T21:02:45;3.83;;;2.10;;
27895;SDS011;15241;48.374;10.876;2023-02-25T21:07:44;4.35;;;1.82;;
27895;SDS011;15241;48.374;10.876;2023-02-25T21:12:43;2.72;;;2.00;;
27895;SDS011;15241;48.374;10.876;2023-02-25T21:17:42;2.55;;;1.82;;
27895;SDS011;15241;48.374;10.876;2023-02-25T21:22:41;3.45;;;1.90;;
27895;SDS011;15241;48.374;10.876;2023-02-25T21:27:40;2.55;;;1.70;;
27895;SDS011;15241;48.374;10.876;2023-02-25T21:32:39;2.92;;;1.72;;
27895;SDS011;15241;48.374;10.876;2023-02-25T21:37:38;2.08;;;1.80;;
27895;SDS011;15241;48.374;10.876;2023-02-25T21:42:37;2.10;;;1.55;;
27895;SDS011;15241;48.374;10.876;2023-02-25T21:47:36;2.80;;;2.22;;
27895;SDS011;15241;48.374;10.876;2023-02-25T21:52:35;2.98;;;1.70;;
27895;SDS011;15241;48.374;10.876;2023-02-25T21:57:33;2.62;;;1.62;;
27895;SDS011;15241;48.374;10.876;2023-02-25T22:07:30;4.30;;;2.27;;
27895;SDS011;15241;48.374;10.876;2023-02-25T22:12:30;3.77;;;2.15;;
27895;SDS011;15241;48.374;10.876;2023-02-25T22:17:29;3.87;;;1.90;;
27895;SDS011;15241;48.374;10.876;2023-02-25T22:22:28;2.12;;;1.80;;
27895;SDS011;15241;48.374;10.876;2023-02-25T22:27:27;3.40;;;1.87;;
27895;SDS011;15241;48.374;10.876;2023-02-25T22:32:26;2.75;;;1.90;;
27895;SDS011;15241;48.374;10.876;2023-02-25T22:37:25;3.33;;;1.60;;
27895;SDS011;15241;48.374;10.876;2023-02-25T22:42:24;3.08;;;1.77;;
27895;SDS011;15241;48.374;10.876;2023-02-25T22:47:23;4.12;;;2.00;;
27895;SDS011;15241;48.374;10.876;2023-02-25T22:52:22;2.58;;;1.80;;
27895;SDS011;15241;48.374;10.876;2023-02-25T22:57:22;2.42;;;1.57;;
27895;SDS011;15241;48.374;10.876;2023-02-25T23:02:21;3.58;;;2.10;;
27895;SDS011;15241;48.374;10.876;2023-02-25T23:07:19;2.22;;;1.67;;
27895;SDS011;15241;48.374;10.876;2023-02-25T23:12:18;2.22;;;1.80;;
27895;SDS011;15241;48.374;10.876;2023-02-25T23:17:17;3.22;;;2.12;;
27895;SDS011;15241;48.374;10.876;2023-02-25T23:22:17;2.00;;;1.65;;
27895;SDS011;15241;48.374;10.876;2023-02-25T23:27:16;2.22;;;1.65;;
27895;SDS011;15241;48.374;10.876;2023-02-25T23:32:15;2.25;;;1.50;;
27895;SDS011;15241;48.374;10.876;2023-02-25T23:37:14;2.30;;;1.30;;
27895;SDS011;15241;48.374;10.876;2023-02-25T23:42:13;1.47;;;1.32;;
27895;SDS011;15241;48.374;10.876;2023-02-25T23:47:12;2.42;;;1.50;;
27895;SDS011;15241;48.374;10.876;2023-02-25T23:52:12;2.80;;;1.42;;
27895;SDS011;15241;48.374;10.876;2023-02-25T23:57:11;1.35;;;1.25;;
